Lode — SFC9613 — position and weather

sailwx.info

Track history (hours):
 
Tides and Currents Weather Stations Pressure Air Temp Water Temp Dewpoint Dewpoint Depression Visibility Wind Speed Wind Dir Waves Ship Positions

Lode

Last reported at 2016-Jun-28 23:31 UTC. Time now 2016-Jun-29 00:20 UTC.
Position N 57°42' E 011°57'.

Length 11 m.

Type: Dredging. MMSI: 265680440.

Date/timePositionNaut miles runAvg speedWind from/ knotsBaromVisibWave heightAir tempDewpointWater temp
2016-Jun-28 23:31N 57°42' E 011°57'0 0.0
2016-Jun-28 22:31N 57°42' E 011°57'0 0.0
2016-Jun-28 21:31N 57°42' E 011°57'0 0.0
2016-Jun-28 20:31N 57°42' E 011°57'0 0.0
2016-Jun-28 19:31N 57°42' E 011°57'0 0.0
2016-Jun-28 18:31N 57°42' E 011°57'0 0.0
2016-Jun-28 17:31N 57°42' E 011°57'0 0.0
2016-Jun-28 16:31N 57°42' E 011°57'0 0.0
2016-Jun-28 15:31N 57°42' E 011°57'4 3.6
2016-Jun-28 14:33N 57°41' E 011°51'9 8.8
2016-Jun-28 13:33N 57°32' E 011°49'2 2.0
2016-Jun-28 12:33N 57°31' E 011°46'5 5.5
2016-Jun-28 11:34N 57°35' E 011°53'7 6.6
2016-Jun-28 10:33N 57°41' E 011°53'2 1.9
2016-Jun-28 09:31N 57°42' E 011°57'0 0.0
2016-Jun-28 08:31N 57°42' E 011°57'0 0.0
2016-Jun-28 07:31N 57°42' E 011°57'0 0.0
2016-Jun-28 06:31N 57°42' E 011°57'0 0.0
2016-Jun-28 04:31N 57°42' E 011°57'0 0.0
2016-Jun-28 03:31N 57°42' E 011°57'0 0.0
2016-Jun-28 02:31N 57°42' E 011°57'0 0.0
2016-Jun-28 01:31N 57°42' E 011°57'0 0.0
2016-Jun-28 00:31N 57°42' E 011°57'0 0.0
2016-Jun-27 23:31N 57°42' E 011°57'0 0.0
2016-Jun-27 22:31N 57°42' E 011°57'0 0.0
2016-Jun-27 21:31N 57°42' E 011°57'0 0.0
2016-Jun-27 20:31N 57°42' E 011°57'0 0.0
2016-Jun-27 19:31N 57°42' E 011°57'0 0.0
2016-Jun-27 18:31N 57°42' E 011°57'0 0.0
2016-Jun-27 17:31N 57°42' E 011°57'0 0.0
2016-Jun-27 16:31N 57°42' E 011°57'0 0.0
2016-Jun-27 15:31N 57°42' E 011°57'0 0.0
2016-Jun-27 14:31N 57°42' E 011°57'8 8.2
2016-Jun-27 13:33N 57°35' E 011°53'1 1.2
2016-Jun-27 12:33N 57°34' E 011°55'0 0.4
2016-Jun-27 11:30N 57°34' E 011°55'0 0.4
2016-Jun-27 10:33N 57°34' E 011°55'0 0.0
2016-Jun-27 09:28N 57°35' E 011°55'0 0.2
2016-Jun-27 08:34N 57°34' E 011°55'7 6.9
2016-Jun-27 07:34N 57°41' E 011°52'3 2.7
2016-Jun-27 06:33N 57°42' E 011°57'0 0.0
2016-Jun-27 05:33N 57°42' E 011°57'0 0.0
2016-Jun-27 04:33N 57°42' E 011°57'0 0.0
2016-Jun-27 03:33N 57°42' E 011°57'0 0.0
2016-Jun-27 02:33N 57°42' E 011°57'0 0.0
2016-Jun-27 01:33N 57°42' E 011°57'0 0.0
2016-Jun-27 00:33N 57°42' E 011°57'0 0.0
2016-Jun-26 23:33N 57°42' E 011°57'0 0.0
2016-Jun-26 22:33N 57°42' E 011°57'0 0.0
2016-Jun-26 21:33N 57°42' E 011°57'0 0.0
2016-Jun-26 20:33N 57°42' E 011°57'0 0.0
2016-Jun-26 19:33N 57°42' E 011°57'0 0.0
2016-Jun-26 18:33N 57°42' E 011°57'0 0.0
2016-Jun-26 17:33N 57°42' E 011°57'0 0.0
2016-Jun-26 16:33N 57°42' E 011°57'0 0.0
2016-Jun-26 15:33N 57°42' E 011°57'0 0.0
2016-Jun-26 14:33N 57°42' E 011°57'0 0.0
2016-Jun-26 13:33N 57°42' E 011°57'0 0.0
2016-Jun-26 12:33N 57°42' E 011°57'0 0.0
2016-Jun-26 11:33N 57°42' E 011°57'0 0.0
2016-Jun-26 10:33N 57°42' E 011°57'0 0.0
2016-Jun-26 09:33N 57°42' E 011°57'0 0.0
2016-Jun-26 08:33N 57°42' E 011°57'0 0.0
2016-Jun-26 07:33N 57°42' E 011°57'0 0.0
2016-Jun-26 06:33N 57°42' E 011°57'0 0.0
2016-Jun-26 05:33N 57°42' E 011°57'0 0.0
2016-Jun-26 04:33N 57°42' E 011°57'0 0.0
2016-Jun-26 03:33N 57°42' E 011°57'0 0.0
2016-Jun-26 02:33N 57°42' E 011°57'0 0.0
2016-Jun-26 01:33N 57°42' E 011°57'0 0.0
2016-Jun-26 00:33N 57°42' E 011°57'0 0.0
2016-Jun-25 23:33N 57°42' E 011°57'0 0.0
2016-Jun-25 22:33N 57°42' E 011°57'0 0.0
2016-Jun-25 21:33N 57°42' E 011°57'0 0.0
2016-Jun-25 20:33N 57°42' E 011°57'0 0.0
2016-Jun-25 19:33N 57°42' E 011°57'0 0.0
2016-Jun-25 18:33N 57°42' E 011°57'0 0.0
2016-Jun-25 17:33N 57°42' E 011°57'0 0.0
2016-Jun-25 16:33N 57°42' E 011°57'0 0.0
2016-Jun-25 15:33N 57°42' E 011°57'0 0.0
2016-Jun-25 14:33N 57°42' E 011°57'0 0.0
2016-Jun-25 13:33N 57°42' E 011°57'0 0.0
2016-Jun-25 12:33N 57°42' E 011°57'0 0.0
2016-Jun-25 11:33N 57°42' E 011°57'0 0.0
2016-Jun-25 10:34N 57°42' E 011°57'0 0.0
2016-Jun-25 09:34N 57°42' E 011°57'0 0.0
2016-Jun-25 08:34N 57°42' E 011°57'0 0.0
2016-Jun-25 07:34N 57°42' E 011°57'0 0.0
2016-Jun-25 06:34N 57°42' E 011°57'0 0.0
2016-Jun-25 05:34N 57°42' E 011°57'0 0.0
2016-Jun-25 04:31N 57°42' E 011°57'0 0.0
2016-Jun-25 03:31N 57°42' E 011°57'0 0.0
2016-Jun-25 02:31N 57°42' E 011°57'0 0.0
2016-Jun-25 01:31N 57°42' E 011°57'0 0.0
2016-Jun-25 00:31N 57°42' E 011°57'0 0.0
2016-Jun-24 23:31N 57°42' E 011°57'0 0.0
2016-Jun-24 22:31N 57°42' E 011°57'0 0.0
2016-Jun-24 21:28N 57°42' E 011°57'0 0.0
2016-Jun-24 20:31N 57°42' E 011°57'0 0.0
2016-Jun-24 19:31N 57°42' E 011°57'0 0.0
2016-Jun-24 18:31N 57°42' E 011°57'0 0.0
2016-Jun-24 17:31N 57°42' E 011°57'0 0.0
2016-Jun-24 16:31N 57°42' E 011°57'0 0.0
2016-Jun-24 15:31N 57°42' E 011°57'0 0.0
2016-Jun-24 14:31N 57°42' E 011°57'0 0.0
2016-Jun-24 13:31N 57°42' E 011°57'0 0.0
2016-Jun-24 12:31N 57°42' E 011°57'0 0.0
2016-Jun-24 11:31N 57°42' E 011°57'0 0.0
2016-Jun-24 10:31N 57°42' E 011°57'0 0.0
2016-Jun-24 09:31N 57°42' E 011°57'0 0.0
2016-Jun-24 08:31N 57°42' E 011°57'0 0.0
2016-Jun-24 07:31N 57°42' E 011°57'0 0.0
2016-Jun-24 04:31N 57°42' E 011°57'0 0.0
2016-Jun-24 03:31N 57°42' E 011°57'0 0.0
2016-Jun-24 02:31N 57°42' E 011°57'0 0.0
2016-Jun-24 01:31N 57°42' E 011°57'0 0.0
2016-Jun-24 00:31N 57°42' E 011°57'0 0.0
2016-Jun-23 23:31N 57°42' E 011°57'0 0.0
2016-Jun-23 22:31N 57°42' E 011°57'0 0.0
2016-Jun-23 21:31N 57°42' E 011°57'0 0.0
2016-Jun-23 20:31N 57°42' E 011°57'0 0.0
2016-Jun-23 19:31N 57°42' E 011°57'0 0.0
2016-Jun-23 18:31N 57°42' E 011°57'0 0.0
2016-Jun-23 17:31N 57°42' E 011°57'0 0.0
2016-Jun-23 16:31N 57°42' E 011°57'0 0.0
2016-Jun-23 15:31N 57°42' E 011°57'0 0.0
2016-Jun-23 14:31N 57°42' E 011°57'0 0.0
2016-Jun-23 13:31N 57°42' E 011°57'1 0.6
2016-Jun-23 12:32N 57°43' E 011°57'0 0.4
2016-Jun-23 11:33N 57°43' E 011°57'7 7.2
2016-Jun-23 10:33N 57°40' E 011°45'1 1.3
2016-Jun-23 09:33N 57°41' E 011°42'2 2.0
2016-Jun-23 08:33N 57°39' E 011°40'0 0.2
2016-Jun-23 07:33N 57°39' E 011°41'9 4.5
2016-Jun-23 05:31N 57°42' E 011°57'0 0.0
2016-Jun-23 04:31N 57°42' E 011°57'0 0.0
2016-Jun-23 03:31N 57°42' E 011°57'0 0.0
2016-Jun-23 02:31N 57°42' E 011°57'0 0.0
2016-Jun-23 01:31N 57°42' E 011°57'0 0.0
2016-Jun-23 00:31N 57°42' E 011°57'0 0.0
2016-Jun-22 23:31N 57°42' E 011°57'0 0.0
2016-Jun-22 22:31N 57°42' E 011°57'0 0.0
2016-Jun-22 21:31N 57°42' E 011°57'0 0.0
2016-Jun-22 20:31N 57°42' E 011°57'0 0.0
2016-Jun-22 19:31N 57°42' E 011°57'0 0.0
2016-Jun-22 18:31N 57°42' E 011°57'0 0.0
2016-Jun-22 17:31N 57°42' E 011°57'0 0.0
2016-Jun-22 16:31N 57°42' E 011°57'0 0.0
2016-Jun-22 15:31N 57°42' E 011°57'0 0.0
2016-Jun-22 14:31N 57°42' E 011°57'0 0.0
2016-Jun-22 13:31N 57°42' E 011°57'0 0.0
2016-Jun-22 12:31N 57°42' E 011°57'0 0.0
2016-Jun-22 11:31N 57°42' E 011°57'0 0.0
2016-Jun-22 10:31N 57°42' E 011°57'0 0.0
2016-Jun-22 09:31N 57°42' E 011°57'0 0.0
2016-Jun-22 08:31N 57°42' E 011°57'0 0.0
2016-Jun-22 07:31N 57°42' E 011°57'0 0.0
2016-Jun-22 06:31N 57°42' E 011°57'0 0.0
2016-Jun-22 05:31N 57°42' E 011°57'0 0.0
2016-Jun-22 04:31N 57°42' E 011°57'0 0.0
2016-Jun-22 03:31N 57°42' E 011°57'0 0.0
2016-Jun-22 02:31N 57°42' E 011°57'0 0.0
2016-Jun-22 01:31N 57°42' E 011°57'0 0.0
2016-Jun-22 00:31N 57°42' E 011°57'0 0.0
2016-Jun-21 23:31N 57°42' E 011°57'0 0.0
2016-Jun-21 22:31N 57°42' E 011°57'0 0.0
2016-Jun-21 21:31N 57°42' E 011°57'0 0.0
2016-Jun-21 20:31N 57°42' E 011°57'0 0.0
2016-Jun-21 19:31N 57°42' E 011°57'0 0.0
2016-Jun-21 18:31N 57°42' E 011°57'0 0.0
2016-Jun-21 17:31N 57°42' E 011°57'0 0.0
2016-Jun-21 16:32N 57°42' E 011°57'0 0.0
2016-Jun-21 15:32N 57°42' E 011°57'0 0.0
2016-Jun-21 14:32N 57°42' E 011°57'0 0.0
2016-Jun-21 13:32N 57°42' E 011°57'0 0.0
2016-Jun-21 12:32N 57°42' E 011°57'2 2.4
2016-Jun-21 11:33N 57°41' E 011°53'7 6.9
2016-Jun-21 10:31N 57°42' E 011°40'4 4.2
2016-Jun-21 09:33N 57°41' E 011°47'6 5.5
2016-Jun-21 08:32N 57°42' E 011°57'0 0.0
2016-Jun-21 07:32N 57°42' E 011°57'0 0.0
2016-Jun-21 04:32N 57°42' E 011°57'0 0.0
2016-Jun-21 03:32N 57°42' E 011°57'0 0.0
2016-Jun-21 02:32N 57°42' E 011°57'0 0.0
2016-Jun-21 01:32N 57°42' E 011°57'0 0.0
2016-Jun-21 00:32N 57°42' E 011°57'0 0.0
2016-Jun-20 23:32N 57°42' E 011°57'0 0.0
2016-Jun-20 22:32N 57°42' E 011°57'0 0.0
2016-Jun-20 21:32N 57°42' E 011°57'0 0.0
2016-Jun-20 20:32N 57°42' E 011°57'0 0.0
2016-Jun-20 19:32N 57°42' E 011°57'0 0.0
2016-Jun-20 18:32N 57°42' E 011°57'0 0.0
2016-Jun-20 17:32N 57°42' E 011°57'0 0.0
2016-Jun-20 16:32N 57°42' E 011°57'0 0.0
2016-Jun-20 15:32N 57°42' E 011°57'0 0.0
2016-Jun-20 14:32N 57°42' E 011°57'0 0.0
2016-Jun-20 13:32N 57°42' E 011°57'0 0.0
2016-Jun-20 12:32N 57°42' E 011°57'0 0.0
2016-Jun-20 11:32N 57°42' E 011°57'0 0.0
2016-Jun-20 10:32N 57°42' E 011°57'0 0.0
2016-Jun-20 09:32N 57°42' E 011°57'0 0.0
2016-Jun-20 08:32N 57°42' E 011°57'0 0.0
2016-Jun-20 07:32N 57°42' E 011°57'0 0.0
2016-Jun-20 06:32N 57°42' E 011°57'0 0.0
2016-Jun-20 05:32N 57°42' E 011°57'0 0.0
2016-Jun-20 04:32N 57°42' E 011°57'0 0.0
2016-Jun-20 03:32N 57°42' E 011°57'0 0.0
2016-Jun-20 02:32N 57°42' E 011°57'0 0.0
2016-Jun-20 01:32N 57°42' E 011°57'0 0.0
2016-Jun-20 00:32N 57°42' E 011°57'0 0.0
2016-Jun-19 23:32N 57°42' E 011°57'0 0.0
2016-Jun-19 22:32N 57°42' E 011°57'0 0.0
2016-Jun-19 21:32N 57°42' E 011°57'0 0.0
2016-Jun-19 20:32N 57°42' E 011°57'0 0.0
2016-Jun-19 19:30N 57°42' E 011°57'0 0.0
2016-Jun-19 18:32N 57°42' E 011°57'0 0.0
2016-Jun-19 17:33N 57°42' E 011°57'0 0.0
2016-Jun-19 16:33N 57°42' E 011°57'0 0.0
2016-Jun-19 15:33N 57°42' E 011°57'0 0.0
2016-Jun-19 14:33N 57°42' E 011°57'0 0.0
2016-Jun-19 13:33N 57°42' E 011°57'0 0.0
2016-Jun-19 12:33N 57°42' E 011°57'0 0.0
2016-Jun-19 11:33N 57°42' E 011°57'0 0.0
2016-Jun-19 10:33N 57°42' E 011°57'0 0.0
2016-Jun-19 09:33N 57°42' E 011°57'0 0.0
2016-Jun-19 08:33N 57°42' E 011°57'0 0.0
2016-Jun-19 07:33N 57°42' E 011°57'0 0.0
2016-Jun-19 06:33N 57°42' E 011°57'0 0.0
2016-Jun-19 05:33N 57°42' E 011°57'0 0.0
2016-Jun-19 04:33N 57°42' E 011°57'0 0.0
2016-Jun-19 03:33N 57°42' E 011°57'0 0.0
2016-Jun-19 02:33N 57°42' E 011°57'0 0.0
2016-Jun-19 01:33N 57°42' E 011°57'0 0.0
2016-Jun-19 00:33N 57°42' E 011°57'0 0.0
2016-Jun-18 23:33N 57°42' E 011°57'  
Track history (hours):
 
Tides and Currents Weather Stations Pressure Air Temp Water Temp Dewpoint Dewpoint Depression Visibility Wind Speed Wind Dir Waves Ship Positions

Lode

Last reported at 2016-Jun-28 23:31 UTC. Time now 2016-Jun-29 00:20 UTC.
Position N 57°42' E 011°57'.

Length 11 m.

Type: Dredging. MMSI: 265680440.

Date/timePositionNaut miles runAvg speedWind from/ knotsBaromVisibWave heightAir tempDewpointWater temp
2016-Jun-28 23:31N 57°42' E 011°57'0 0.0
2016-Jun-28 22:31N 57°42' E 011°57'0 0.0
2016-Jun-28 21:31N 57°42' E 011°57'0 0.0
2016-Jun-28 20:31N 57°42' E 011°57'0 0.0
2016-Jun-28 19:31N 57°42' E 011°57'0 0.0
2016-Jun-28 18:31N 57°42' E 011°57'0 0.0
2016-Jun-28 17:31N 57°42' E 011°57'0 0.0
2016-Jun-28 16:31N 57°42' E 011°57'0 0.0
2016-Jun-28 15:31N 57°42' E 011°57'4 3.6
2016-Jun-28 14:33N 57°41' E 011°51'9 8.8
2016-Jun-28 13:33N 57°32' E 011°49'2 2.0
2016-Jun-28 12:33N 57°31' E 011°46'5 5.5
2016-Jun-28 11:34N 57°35' E 011°53'7 6.6
2016-Jun-28 10:33N 57°41' E 011°53'2 1.9
2016-Jun-28 09:31N 57°42' E 011°57'0 0.0
2016-Jun-28 08:31N 57°42' E 011°57'0 0.0
2016-Jun-28 07:31N 57°42' E 011°57'0 0.0
2016-Jun-28 06:31N 57°42' E 011°57'0 0.0
2016-Jun-28 04:31N 57°42' E 011°57'0 0.0
2016-Jun-28 03:31N 57°42' E 011°57'0 0.0
2016-Jun-28 02:31N 57°42' E 011°57'0 0.0
2016-Jun-28 01:31N 57°42' E 011°57'0 0.0
2016-Jun-28 00:31N 57°42' E 011°57'0 0.0
2016-Jun-27 23:31N 57°42' E 011°57'0 0.0
2016-Jun-27 22:31N 57°42' E 011°57'0 0.0
2016-Jun-27 21:31N 57°42' E 011°57'0 0.0
2016-Jun-27 20:31N 57°42' E 011°57'0 0.0
2016-Jun-27 19:31N 57°42' E 011°57'0 0.0
2016-Jun-27 18:31N 57°42' E 011°57'0 0.0
2016-Jun-27 17:31N 57°42' E 011°57'0 0.0
2016-Jun-27 16:31N 57°42' E 011°57'0 0.0
2016-Jun-27 15:31N 57°42' E 011°57'0 0.0
2016-Jun-27 14:31N 57°42' E 011°57'8 8.2
2016-Jun-27 13:33N 57°35' E 011°53'1 1.2
2016-Jun-27 12:33N 57°34' E 011°55'0 0.4
2016-Jun-27 11:30N 57°34' E 011°55'0 0.4
2016-Jun-27 10:33N 57°34' E 011°55'0 0.0
2016-Jun-27 09:28N 57°35' E 011°55'0 0.2
2016-Jun-27 08:34N 57°34' E 011°55'7 6.9
2016-Jun-27 07:34N 57°41' E 011°52'3 2.7
2016-Jun-27 06:33N 57°42' E 011°57'0 0.0
2016-Jun-27 05:33N 57°42' E 011°57'0 0.0
2016-Jun-27 04:33N 57°42' E 011°57'0 0.0
2016-Jun-27 03:33N 57°42' E 011°57'0 0.0
2016-Jun-27 02:33N 57°42' E 011°57'0 0.0
2016-Jun-27 01:33N 57°42' E 011°57'0 0.0
2016-Jun-27 00:33N 57°42' E 011°57'0 0.0
2016-Jun-26 23:33N 57°42' E 011°57'0 0.0
2016-Jun-26 22:33N 57°42' E 011°57'0 0.0
2016-Jun-26 21:33N 57°42' E 011°57'0 0.0
2016-Jun-26 20:33N 57°42' E 011°57'0 0.0
2016-Jun-26 19:33N 57°42' E 011°57'0 0.0
2016-Jun-26 18:33N 57°42' E 011°57'0 0.0
2016-Jun-26 17:33N 57°42' E 011°57'0 0.0
2016-Jun-26 16:33N 57°42' E 011°57'0 0.0
2016-Jun-26 15:33N 57°42' E 011°57'0 0.0
2016-Jun-26 14:33N 57°42' E 011°57'0 0.0
2016-Jun-26 13:33N 57°42' E 011°57'0 0.0
2016-Jun-26 12:33N 57°42' E 011°57'0 0.0
2016-Jun-26 11:33N 57°42' E 011°57'0 0.0
2016-Jun-26 10:33N 57°42' E 011°57'0 0.0
2016-Jun-26 09:33N 57°42' E 011°57'0 0.0
2016-Jun-26 08:33N 57°42' E 011°57'0 0.0
2016-Jun-26 07:33N 57°42' E 011°57'0 0.0
2016-Jun-26 06:33N 57°42' E 011°57'0 0.0
2016-Jun-26 05:33N 57°42' E 011°57'0 0.0
2016-Jun-26 04:33N 57°42' E 011°57'0 0.0
2016-Jun-26 03:33N 57°42' E 011°57'0 0.0
2016-Jun-26 02:33N 57°42' E 011°57'0 0.0
2016-Jun-26 01:33N 57°42' E 011°57'0 0.0
2016-Jun-26 00:33N 57°42' E 011°57'0 0.0
2016-Jun-25 23:33N 57°42' E 011°57'0 0.0
2016-Jun-25 22:33N 57°42' E 011°57'0 0.0
2016-Jun-25 21:33N 57°42' E 011°57'0 0.0
2016-Jun-25 20:33N 57°42' E 011°57'0 0.0
2016-Jun-25 19:33N 57°42' E 011°57'0 0.0
2016-Jun-25 18:33N 57°42' E 011°57'0 0.0
2016-Jun-25 17:33N 57°42' E 011°57'0 0.0
2016-Jun-25 16:33N 57°42' E 011°57'0 0.0
2016-Jun-25 15:33N 57°42' E 011°57'0 0.0
2016-Jun-25 14:33N 57°42' E 011°57'0 0.0
2016-Jun-25 13:33N 57°42' E 011°57'0 0.0
2016-Jun-25 12:33N 57°42' E 011°57'0 0.0
2016-Jun-25 11:33N 57°42' E 011°57'0 0.0
2016-Jun-25 10:34N 57°42' E 011°57'0 0.0
2016-Jun-25 09:34N 57°42' E 011°57'0 0.0
2016-Jun-25 08:34N 57°42' E 011°57'0 0.0
2016-Jun-25 07:34N 57°42' E 011°57'0 0.0
2016-Jun-25 06:34N 57°42' E 011°57'0 0.0
2016-Jun-25 05:34N 57°42' E 011°57'0 0.0
2016-Jun-25 04:31N 57°42' E 011°57'0 0.0
2016-Jun-25 03:31N 57°42' E 011°57'0 0.0
2016-Jun-25 02:31N 57°42' E 011°57'0 0.0
2016-Jun-25 01:31N 57°42' E 011°57'0 0.0
2016-Jun-25 00:31N 57°42' E 011°57'0 0.0
2016-Jun-24 23:31N 57°42' E 011°57'0 0.0
2016-Jun-24 22:31N 57°42' E 011°57'0 0.0
2016-Jun-24 21:28N 57°42' E 011°57'0 0.0
2016-Jun-24 20:31N 57°42' E 011°57'0 0.0
2016-Jun-24 19:31N 57°42' E 011°57'0 0.0
2016-Jun-24 18:31N 57°42' E 011°57'0 0.0
2016-Jun-24 17:31N 57°42' E 011°57'0 0.0
2016-Jun-24 16:31N 57°42' E 011°57'0 0.0
2016-Jun-24 15:31N 57°42' E 011°57'0 0.0
2016-Jun-24 14:31N 57°42' E 011°57'0 0.0
2016-Jun-24 13:31N 57°42' E 011°57'0 0.0
2016-Jun-24 12:31N 57°42' E 011°57'0 0.0
2016-Jun-24 11:31N 57°42' E 011°57'0 0.0
2016-Jun-24 10:31N 57°42' E 011°57'0 0.0
2016-Jun-24 09:31N 57°42' E 011°57'0 0.0
2016-Jun-24 08:31N 57°42' E 011°57'0 0.0
2016-Jun-24 07:31N 57°42' E 011°57'0 0.0
2016-Jun-24 04:31N 57°42' E 011°57'0 0.0
2016-Jun-24 03:31N 57°42' E 011°57'0 0.0
2016-Jun-24 02:31N 57°42' E 011°57'0 0.0
2016-Jun-24 01:31N 57°42' E 011°57'0 0.0
2016-Jun-24 00:31N 57°42' E 011°57'0 0.0
2016-Jun-23 23:31N 57°42' E 011°57'0 0.0
2016-Jun-23 22:31N 57°42' E 011°57'0 0.0
2016-Jun-23 21:31N 57°42' E 011°57'0 0.0
2016-Jun-23 20:31N 57°42' E 011°57'0 0.0
2016-Jun-23 19:31N 57°42' E 011°57'0 0.0
2016-Jun-23 18:31N 57°42' E 011°57'0 0.0
2016-Jun-23 17:31N 57°42' E 011°57'0 0.0
2016-Jun-23 16:31N 57°42' E 011°57'0 0.0
2016-Jun-23 15:31N 57°42' E 011°57'0 0.0
2016-Jun-23 14:31N 57°42' E 011°57'0 0.0
2016-Jun-23 13:31N 57°42' E 011°57'1 0.6
2016-Jun-23 12:32N 57°43' E 011°57'0 0.4
2016-Jun-23 11:33N 57°43' E 011°57'7 7.2
2016-Jun-23 10:33N 57°40' E 011°45'1 1.3
2016-Jun-23 09:33N 57°41' E 011°42'2 2.0
2016-Jun-23 08:33N 57°39' E 011°40'0 0.2
2016-Jun-23 07:33N 57°39' E 011°41'9 4.5
2016-Jun-23 05:31N 57°42' E 011°57'0 0.0
2016-Jun-23 04:31N 57°42' E 011°57'0 0.0
2016-Jun-23 03:31N 57°42' E 011°57'0 0.0
2016-Jun-23 02:31N 57°42' E 011°57'0 0.0
2016-Jun-23 01:31N 57°42' E 011°57'0 0.0
2016-Jun-23 00:31N 57°42' E 011°57'0 0.0
2016-Jun-22 23:31N 57°42' E 011°57'0 0.0
2016-Jun-22 22:31N 57°42' E 011°57'0 0.0
2016-Jun-22 21:31N 57°42' E 011°57'0 0.0
2016-Jun-22 20:31N 57°42' E 011°57'0 0.0
2016-Jun-22 19:31N 57°42' E 011°57'0 0.0
2016-Jun-22 18:31N 57°42' E 011°57'0 0.0
2016-Jun-22 17:31N 57°42' E 011°57'0 0.0
2016-Jun-22 16:31N 57°42' E 011°57'0 0.0
2016-Jun-22 15:31N 57°42' E 011°57'0 0.0
2016-Jun-22 14:31N 57°42' E 011°57'0 0.0
2016-Jun-22 13:31N 57°42' E 011°57'0 0.0
2016-Jun-22 12:31N 57°42' E 011°57'0 0.0
2016-Jun-22 11:31N 57°42' E 011°57'0 0.0
2016-Jun-22 10:31N 57°42' E 011°57'0 0.0
2016-Jun-22 09:31N 57°42' E 011°57'0 0.0
2016-Jun-22 08:31N 57°42' E 011°57'0 0.0
2016-Jun-22 07:31N 57°42' E 011°57'0 0.0
2016-Jun-22 06:31N 57°42' E 011°57'0 0.0
2016-Jun-22 05:31N 57°42' E 011°57'0 0.0
2016-Jun-22 04:31N 57°42' E 011°57'0 0.0
2016-Jun-22 03:31N 57°42' E 011°57'0 0.0
2016-Jun-22 02:31N 57°42' E 011°57'0 0.0
2016-Jun-22 01:31N 57°42' E 011°57'0 0.0
2016-Jun-22 00:31N 57°42' E 011°57'0 0.0
2016-Jun-21 23:31N 57°42' E 011°57'0 0.0
2016-Jun-21 22:31N 57°42' E 011°57'0 0.0
2016-Jun-21 21:31N 57°42' E 011°57'0 0.0
2016-Jun-21 20:31N 57°42' E 011°57'0 0.0
2016-Jun-21 19:31N 57°42' E 011°57'0 0.0
2016-Jun-21 18:31N 57°42' E 011°57'0 0.0
2016-Jun-21 17:31N 57°42' E 011°57'0 0.0
2016-Jun-21 16:32N 57°42' E 011°57'0 0.0
2016-Jun-21 15:32N 57°42' E 011°57'0 0.0
2016-Jun-21 14:32N 57°42' E 011°57'0 0.0
2016-Jun-21 13:32N 57°42' E 011°57'0 0.0
2016-Jun-21 12:32N 57°42' E 011°57'2 2.4
2016-Jun-21 11:33N 57°41' E 011°53'7 6.9
2016-Jun-21 10:31N 57°42' E 011°40'4 4.2
2016-Jun-21 09:33N 57°41' E 011°47'6 5.5
2016-Jun-21 08:32N 57°42' E 011°57'0 0.0
2016-Jun-21 07:32N 57°42' E 011°57'0 0.0
2016-Jun-21 04:32N 57°42' E 011°57'0 0.0
2016-Jun-21 03:32N 57°42' E 011°57'0 0.0
2016-Jun-21 02:32N 57°42' E 011°57'0 0.0
2016-Jun-21 01:32N 57°42' E 011°57'0 0.0
2016-Jun-21 00:32N 57°42' E 011°57'0 0.0
2016-Jun-20 23:32N 57°42' E 011°57'0 0.0
2016-Jun-20 22:32N 57°42' E 011°57'0 0.0
2016-Jun-20 21:32N 57°42' E 011°57'0 0.0
2016-Jun-20 20:32N 57°42' E 011°57'0 0.0
2016-Jun-20 19:32N 57°42' E 011°57'0 0.0
2016-Jun-20 18:32N 57°42' E 011°57'0 0.0
2016-Jun-20 17:32N 57°42' E 011°57'0 0.0
2016-Jun-20 16:32N 57°42' E 011°57'0 0.0
2016-Jun-20 15:32N 57°42' E 011°57'0 0.0
2016-Jun-20 14:32N 57°42' E 011°57'0 0.0
2016-Jun-20 13:32N 57°42' E 011°57'0 0.0
2016-Jun-20 12:32N 57°42' E 011°57'0 0.0
2016-Jun-20 11:32N 57°42' E 011°57'0 0.0
2016-Jun-20 10:32N 57°42' E 011°57'0 0.0
2016-Jun-20 09:32N 57°42' E 011°57'0 0.0
2016-Jun-20 08:32N 57°42' E 011°57'0 0.0
2016-Jun-20 07:32N 57°42' E 011°57'0 0.0
2016-Jun-20 06:32N 57°42' E 011°57'0 0.0
2016-Jun-20 05:32N 57°42' E 011°57'0 0.0
2016-Jun-20 04:32N 57°42' E 011°57'0 0.0
2016-Jun-20 03:32N 57°42' E 011°57'0 0.0
2016-Jun-20 02:32N 57°42' E 011°57'0 0.0
2016-Jun-20 01:32N 57°42' E 011°57'0 0.0
2016-Jun-20 00:32N 57°42' E 011°57'0 0.0
2016-Jun-19 23:32N 57°42' E 011°57'0 0.0
2016-Jun-19 22:32N 57°42' E 011°57'0 0.0
2016-Jun-19 21:32N 57°42' E 011°57'0 0.0
2016-Jun-19 20:32N 57°42' E 011°57'0 0.0
2016-Jun-19 19:30N 57°42' E 011°57'0 0.0
2016-Jun-19 18:32N 57°42' E 011°57'0 0.0
2016-Jun-19 17:33N 57°42' E 011°57'0 0.0
2016-Jun-19 16:33N 57°42' E 011°57'0 0.0
2016-Jun-19 15:33N 57°42' E 011°57'0 0.0
2016-Jun-19 14:33N 57°42' E 011°57'0 0.0
2016-Jun-19 13:33N 57°42' E 011°57'0 0.0
2016-Jun-19 12:33N 57°42' E 011°57'0 0.0
2016-Jun-19 11:33N 57°42' E 011°57'0 0.0
2016-Jun-19 10:33N 57°42' E 011°57'0 0.0
2016-Jun-19 09:33N 57°42' E 011°57'0 0.0
2016-Jun-19 08:33N 57°42' E 011°57'0 0.0
2016-Jun-19 07:33N 57°42' E 011°57'0 0.0
2016-Jun-19 06:33N 57°42' E 011°57'0 0.0
2016-Jun-19 05:33N 57°42' E 011°57'0 0.0
2016-Jun-19 04:33N 57°42' E 011°57'0 0.0
2016-Jun-19 03:33N 57°42' E 011°57'0 0.0
2016-Jun-19 02:33N 57°42' E 011°57'0 0.0
2016-Jun-19 01:33N 57°42' E 011°57'0 0.0
2016-Jun-19 00:33N 57°42' E 011°57'0 0.0
2016-Jun-18 23:33N 57°42' E 011°57'  

Dump ship's entire track history